Sainte Genevieve, Missouri
Current Conditions -  °F | °C
As of 10:35 AM on Friday 28 Nov 2014 (Local Time) from KSAR Reporting Station
Clear Clear  
Wind Chill: 26°   Ceiling: Unl
Heat Index: 35°   Visibility: 10mi
Dew Point: 29°   Wind: 16mph
Humidity: 77%   Direction: 190°S
Pressure: 30.22"   Gusts: 25mph
Location:  37.98°N, 90.04°W
Report Text: KSAR 281635Z AUTO 19014G22KT 10SM CLR 02/M02 A3022 RMK AO2 T00191017
Loading
Personal Weather Stations






























Interactive Weather Map New forecast layout! Learn more

10-Day Weather Forecast

Advertisements
Track Severe Weather on mobile